createdAt,value
2023-09-27T00:00:00.437Z,13.99
2023-09-27T00:02:32.083Z,13.98
2023-09-27T00:05:07.986Z,13.91
2023-09-27T00:07:41.476Z,13.76
2023-09-27T00:10:13.734Z,13.78
2023-09-27T00:12:49.346Z,13.81
2023-09-27T00:15:21.047Z,13.71
2023-09-27T00:17:52.715Z,13.74
2023-09-27T00:20:25.748Z,13.65
2023-09-27T00:22:57.426Z,13.62
2023-09-27T00:25:29.974Z,13.57
2023-09-27T00:28:01.584Z,13.49
2023-09-27T00:30:33.156Z,13.46
2023-09-27T00:33:05.860Z,13.38
2023-09-27T00:35:37.547Z,13.33
2023-09-27T00:38:09.227Z,13.29
2023-09-27T00:40:48.572Z,13.34
2023-09-27T00:43:26.961Z,13.32
2023-09-27T00:46:02.505Z,13.41
2023-09-27T00:48:37.065Z,13.35
2023-09-27T00:51:08.647Z,13.31
2023-09-27T00:53:42.419Z,13.23
2023-09-27T00:56:14.433Z,13.25
2023-09-27T00:58:46.157Z,13.26
2023-09-27T01:01:19.033Z,13.24
2023-09-27T01:03:51.460Z,13.25
2023-09-27T01:06:23.802Z,13.22
2023-09-27T01:08:55.435Z,13.21
2023-09-27T01:11:28.451Z,13.21
2023-09-27T01:14:00.541Z,13.14
2023-09-27T01:16:33.550Z,13.11
2023-09-27T01:19:05.343Z,13.11
2023-09-27T01:21:36.906Z,13.11
2023-09-27T01:24:10.734Z,13.11
2023-09-27T01:26:42.355Z,13.11
2023-09-27T01:29:14.165Z,13.13
2023-09-27T01:31:45.770Z,13.17
2023-09-27T01:34:17.516Z,13.22
2023-09-27T01:36:49.527Z,13.25
2023-09-27T01:39:21.110Z,13.18
2023-09-27T01:41:52.946Z,13.21
2023-09-27T01:44:24.601Z,13.24
2023-09-27T01:46:56.158Z,13.36
2023-09-27T01:49:27.689Z,13.49
2023-09-27T01:51:59.280Z,13.61
2023-09-27T01:54:30.777Z,13.56
2023-09-27T01:57:02.326Z,13.60
2023-09-27T01:59:33.877Z,13.60
2023-09-27T02:02:05.449Z,13.63
2023-09-27T02:04:37.024Z,13.73
2023-09-27T02:07:09.003Z,13.80
2023-09-27T02:09:40.517Z,13.67
2023-09-27T02:12:12.059Z,13.76
2023-09-27T02:14:43.620Z,13.86
2023-09-27T02:17:15.204Z,13.94
2023-09-27T02:19:46.858Z,13.84
2023-09-27T02:22:19.509Z,13.68
2023-09-27T02:24:51.068Z,13.54
2023-09-27T02:27:22.655Z,13.52
2023-09-27T02:29:54.193Z,13.50
2023-09-27T02:32:25.734Z,13.50
2023-09-27T02:34:57.328Z,13.54
2023-09-27T02:37:29.077Z,13.53
2023-09-27T02:40:00.559Z,13.51
2023-09-27T02:42:32.111Z,13.54
2023-09-27T02:45:04.224Z,13.58
2023-09-27T02:47:36.747Z,13.44
2023-09-27T02:50:12.218Z,13.42
2023-09-27T02:52:45.039Z,13.35
2023-09-27T02:55:17.087Z,13.31
2023-09-27T02:57:54.334Z,13.25
2023-09-27T03:00:27.798Z,13.14
2023-09-27T03:02:59.586Z,13.12
2023-09-27T03:05:36.382Z,13.10
2023-09-27T03:08:08.389Z,13.16
2023-09-27T03:10:40.084Z,13.21
2023-09-27T03:13:12.715Z,13.21
2023-09-27T03:15:45.268Z,13.27
2023-09-27T03:18:17.078Z,13.27
2023-09-27T03:20:48.661Z,13.34
2023-09-27T03:23:20.241Z,13.32
2023-09-27T03:25:52.020Z,13.25
2023-09-27T03:28:24.384Z,13.19
2023-09-27T03:30:55.897Z,13.14
2023-09-27T03:33:28.520Z,13.15
2023-09-27T03:36:04.172Z,13.10
2023-09-27T03:38:36.178Z,13.00
2023-09-27T03:41:09.565Z,13.00
2023-09-27T03:43:41.139Z,12.96
2023-09-27T03:46:27.978Z,12.87
2023-09-27T03:48:59.533Z,12.92
2023-09-27T03:51:31.135Z,12.94
2023-09-27T03:54:02.652Z,12.91
2023-09-27T03:56:34.241Z,12.93
2023-09-27T03:59:05.909Z,12.87
2023-09-27T04:01:38.286Z,12.84
2023-09-27T04:04:10.504Z,12.79
2023-09-27T04:06:42.282Z,12.71
2023-09-27T04:09:13.838Z,12.68
2023-09-27T04:11:45.561Z,12.64
2023-09-27T04:14:17.221Z,12.69
2023-09-27T04:16:48.733Z,12.72
2023-09-27T04:19:20.297Z,12.79
2023-09-27T04:21:51.812Z,12.76
2023-09-27T04:24:24.130Z,12.71
2023-09-27T04:26:55.667Z,12.67
2023-09-27T04:29:27.627Z,12.71
2023-09-27T04:31:59.326Z,12.79
2023-09-27T04:34:30.959Z,12.84
2023-09-27T04:37:02.445Z,12.94
2023-09-27T04:39:33.952Z,12.82
2023-09-27T04:42:05.464Z,12.73
2023-09-27T04:44:37.090Z,12.73
2023-09-27T04:47:08.693Z,12.77
2023-09-27T04:49:40.242Z,12.75
2023-09-27T04:52:11.727Z,12.66
2023-09-27T04:54:43.294Z,12.76
2023-09-27T04:57:14.760Z,12.70
2023-09-27T04:59:49.652Z,12.82
2023-09-27T05:02:21.753Z,12.92
2023-09-27T05:04:53.324Z,12.91
2023-09-27T05:07:25.787Z,12.86
2023-09-27T05:09:57.354Z,12.88
2023-09-27T05:12:28.875Z,12.88
2023-09-27T05:15:00.410Z,12.86
2023-09-27T05:17:31.998Z,12.89
2023-09-27T05:20:12.238Z,12.83
2023-09-27T05:22:44.953Z,12.87
2023-09-27T05:25:16.502Z,12.87
2023-09-27T05:27:48.002Z,12.84
2023-09-27T05:30:22.508Z,13.00
2023-09-27T05:32:54.572Z,13.12
2023-09-27T05:35:26.166Z,13.22
2023-09-27T05:38:00.029Z,13.36
2023-09-27T05:40:32.487Z,13.35
2023-09-27T05:43:04.363Z,13.26
2023-09-27T05:45:36.066Z,13.27
2023-09-27T05:48:07.682Z,13.28
2023-09-27T05:50:41.743Z,13.45
2023-09-27T05:53:13.655Z,13.52
2023-09-27T05:55:45.417Z,13.53
2023-09-27T05:58:17.029Z,13.44
2023-09-27T06:00:49.228Z,13.34
2023-09-27T06:03:21.046Z,13.30
2023-09-27T06:05:52.657Z,13.51
2023-09-27T06:08:24.269Z,14.10
2023-09-27T06:10:56.802Z,14.32
2023-09-27T06:13:29.451Z,14.25
2023-09-27T06:16:02.004Z,14.22
2023-09-27T06:18:33.696Z,14.13
2023-09-27T06:21:08.280Z,14.25
2023-09-27T06:23:41.087Z,14.26
2023-09-27T06:26:13.719Z,14.15
2023-09-27T06:28:45.406Z,14.27
2023-09-27T06:31:17.055Z,14.43
2023-09-27T06:33:49.004Z,14.60
2023-09-27T06:36:22.623Z,14.71
2023-09-27T06:38:54.447Z,14.68
2023-09-27T06:41:26.206Z,14.75
2023-09-27T06:43:57.793Z,14.79
2023-09-27T06:46:35.625Z,14.92
2023-09-27T06:49:20.639Z,15.00
2023-09-27T06:51:52.190Z,15.09
2023-09-27T06:54:23.935Z,15.15
2023-09-27T06:56:55.486Z,15.30
2023-09-27T06:59:27.709Z,15.47
2023-09-27T07:01:59.335Z,15.63
2023-09-27T07:04:30.895Z,15.69
2023-09-27T07:07:03.566Z,15.79
2023-09-27T07:09:35.378Z,15.91
2023-09-27T07:12:06.964Z,16.02
2023-09-27T07:14:38.569Z,16.18
2023-09-27T07:17:10.152Z,16.31
2023-09-27T07:19:41.892Z,16.36
2023-09-27T07:22:16.776Z,16.29
2023-09-27T07:24:49.994Z,16.41
2023-09-27T07:27:21.479Z,16.62
2023-09-27T07:29:53.049Z,16.79
2023-09-27T07:32:24.599Z,16.47
2023-09-27T07:34:59.215Z,16.63
2023-09-27T07:37:33.577Z,16.79
2023-09-27T07:40:10.870Z,16.78
2023-09-27T07:42:44.770Z,16.95
2023-09-27T07:45:23.587Z,17.19
2023-09-27T07:47:55.869Z,17.23
2023-09-27T07:50:34.740Z,17.30
2023-09-27T07:53:07.601Z,17.36
2023-09-27T07:55:51.778Z,17.61
2023-09-27T07:58:23.828Z,17.86
2023-09-27T08:00:55.421Z,17.55
2023-09-27T08:03:28.545Z,17.57
2023-09-27T08:06:00.278Z,17.77
2023-09-27T08:08:31.899Z,17.52
2023-09-27T08:11:03.788Z,17.91
2023-09-27T08:13:35.672Z,18.14
2023-09-27T08:16:09.049Z,18.31
2023-09-27T08:18:41.596Z,18.51
2023-09-27T08:21:13.314Z,18.64
2023-09-27T08:23:44.932Z,18.79
2023-09-27T08:26:16.646Z,18.59
2023-09-27T08:28:48.214Z,18.43
2023-09-27T08:31:19.857Z,18.41
2023-09-27T08:33:51.384Z,18.83
2023-09-27T08:36:22.924Z,18.60
2023-09-27T08:38:54.621Z,18.77
2023-09-27T08:41:26.455Z,18.99
2023-09-27T08:43:58.706Z,19.06
2023-09-27T08:46:34.871Z,19.09
2023-09-27T08:49:09.730Z,19.29
2023-09-27T08:51:43.401Z,19.52
2023-09-27T08:54:20.137Z,19.67
2023-09-27T08:56:52.710Z,19.61
2023-09-27T08:59:24.387Z,19.31
2023-09-27T09:01:58.570Z,19.59
2023-09-27T09:04:32.239Z,19.63
2023-09-27T09:07:04.527Z,19.74
2023-09-27T09:09:36.318Z,19.71
2023-09-27T09:12:10.968Z,19.58
2023-09-27T09:14:45.793Z,19.43
2023-09-27T09:17:26.042Z,19.51
2023-09-27T09:20:22.518Z,19.60
2023-09-27T09:22:58.595Z,19.62
2023-09-27T09:25:30.633Z,19.75
2023-09-27T09:28:10.251Z,19.75
2023-09-27T09:30:41.977Z,19.69
2023-09-27T09:33:18.612Z,19.63
2023-09-27T09:35:52.322Z,19.49
2023-09-27T09:38:31.924Z,19.43
2023-09-27T09:41:03.883Z,19.50
2023-09-27T09:43:37.855Z,19.70
2023-09-27T09:46:11.914Z,20.15
2023-09-27T09:48:45.511Z,20.74
2023-09-27T09:51:19.902Z,21.17
2023-09-27T09:53:54.570Z,21.47
2023-09-27T09:56:33.525Z,22.43
2023-09-27T09:59:10.638Z,23.54
2023-09-27T10:01:43.670Z,24.48
2023-09-27T10:04:16.887Z,24.59
2023-09-27T10:06:49.732Z,24.29
2023-09-27T10:09:29.516Z,23.37
2023-09-27T10:12:02.402Z,24.12
2023-09-27T10:14:34.548Z,24.41
2023-09-27T10:17:06.174Z,25.29
2023-09-27T10:19:37.809Z,25.42
2023-09-27T10:22:15.259Z,25.94
2023-09-27T10:24:46.976Z,24.15
2023-09-27T10:27:20.053Z,23.89
2023-09-27T10:29:59.310Z,22.86
2023-09-27T10:32:32.228Z,24.65
2023-09-27T10:35:18.447Z,25.81
2023-09-27T10:38:00.725Z,25.98
2023-09-27T10:40:43.523Z,25.08
2023-09-27T10:43:36.415Z,25.66
2023-09-27T10:46:08.556Z,26.74
2023-09-27T10:48:43.723Z,26.20
2023-09-27T10:51:15.385Z,26.07
2023-09-27T10:53:47.022Z,24.50
2023-09-27T10:56:19.113Z,24.46
2023-09-27T10:58:50.990Z,24.42
2023-09-27T11:01:24.658Z,22.77
2023-09-27T11:04:05.219Z,23.82
2023-09-27T11:06:36.957Z,22.39
2023-09-27T11:09:10.023Z,23.60
2023-09-27T11:11:45.229Z,24.14
2023-09-27T11:14:33.009Z,24.93
2023-09-27T11:17:17.928Z,24.86
2023-09-27T11:19:53.513Z,24.71
2023-09-27T11:22:26.397Z,24.81
2023-09-27T11:24:57.947Z,24.69
2023-09-27T11:27:29.540Z,24.47
2023-09-27T11:30:01.102Z,24.10
2023-09-27T11:32:50.961Z,23.78
2023-09-27T11:35:22.705Z,24.74
2023-09-27T11:38:14.487Z,26.36
2023-09-27T11:40:47.647Z,27.77
2023-09-27T11:43:19.641Z,28.19
2023-09-27T11:45:51.544Z,28.32
2023-09-27T11:48:41.089Z,27.74
2023-09-27T11:51:13.020Z,27.08
2023-09-27T11:53:46.767Z,26.45
2023-09-27T11:56:18.415Z,25.56
2023-09-27T11:58:49.997Z,25.95
2023-09-27T12:01:21.542Z,26.52
2023-09-27T12:03:53.635Z,26.97
2023-09-27T12:06:26.995Z,26.08
2023-09-27T12:09:01.924Z,25.25
2023-09-27T12:11:33.924Z,26.66
2023-09-27T12:14:05.839Z,26.79
2023-09-27T12:16:37.488Z,24.18
2023-09-27T12:19:09.280Z,23.58
2023-09-27T12:21:40.771Z,22.81
2023-09-27T12:24:12.406Z,22.70
2023-09-27T12:26:44.015Z,23.43
2023-09-27T12:29:15.661Z,22.72
2023-09-27T12:31:47.212Z,23.97
2023-09-27T12:34:20.259Z,24.58
2023-09-27T12:36:52.032Z,25.69
2023-09-27T12:39:23.590Z,24.41
2023-09-27T12:41:55.139Z,24.18
2023-09-27T12:44:27.299Z,24.62
2023-09-27T12:46:58.887Z,24.59
2023-09-27T12:49:30.542Z,24.88
2023-09-27T12:52:02.248Z,24.50
2023-09-27T12:54:33.820Z,24.15
2023-09-27T12:57:05.378Z,24.31
2023-09-27T12:59:37.005Z,24.29
2023-09-27T13:02:08.772Z,23.51
2023-09-27T13:04:40.361Z,23.71
2023-09-27T13:07:12.192Z,23.10
2023-09-27T13:09:43.823Z,23.05
2023-09-27T13:12:15.765Z,23.14
2023-09-27T13:14:47.466Z,23.12
2023-09-27T13:17:19.116Z,22.86
2023-09-27T13:19:54.025Z,22.91
2023-09-27T13:22:25.609Z,22.51
2023-09-27T13:24:57.087Z,22.94
2023-09-27T13:27:28.874Z,23.05
2023-09-27T13:30:00.379Z,23.24
2023-09-27T13:32:32.104Z,22.50
2023-09-27T13:35:03.990Z,22.31
2023-09-27T13:37:35.610Z,22.40
2023-09-27T13:40:13.967Z,22.10
2023-09-27T13:42:45.801Z,21.91
2023-09-27T13:45:17.415Z,22.03
2023-09-27T13:47:49.139Z,22.41
2023-09-27T13:50:20.877Z,22.24
2023-09-27T13:52:52.415Z,22.42
2023-09-27T13:55:24.126Z,22.78
2023-09-27T13:57:57.141Z,22.96
2023-09-27T14:00:29.329Z,22.88
2023-09-27T14:03:01.596Z,22.52
2023-09-27T14:05:33.622Z,22.31
2023-09-27T14:08:05.613Z,22.32
2023-09-27T14:10:37.139Z,22.34
2023-09-27T14:13:08.752Z,22.16
2023-09-27T14:15:41.545Z,22.16
2023-09-27T14:18:13.389Z,22.24
2023-09-27T14:20:45.414Z,22.12
2023-09-27T14:23:17.055Z,22.03
2023-09-27T14:25:48.643Z,22.00
2023-09-27T14:28:20.311Z,22.05
2023-09-27T14:30:52.076Z,22.31
2023-09-27T14:33:24.726Z,22.41
2023-09-27T14:35:57.625Z,22.48
2023-09-27T14:38:30.717Z,22.51
2023-09-27T14:41:10.113Z,22.45
2023-09-27T14:43:41.810Z,22.50
2023-09-27T14:46:13.819Z,22.23
2023-09-27T14:48:45.533Z,22.29
2023-09-27T14:51:17.762Z,22.99
2023-09-27T14:53:49.336Z,23.08
2023-09-27T14:56:20.912Z,23.30
2023-09-27T14:58:52.507Z,23.48
2023-09-27T15:01:24.264Z,22.97
2023-09-27T15:03:56.390Z,22.84
2023-09-27T15:06:28.192Z,22.80
2023-09-27T15:09:00.477Z,22.77
2023-09-27T15:11:32.029Z,22.70
2023-09-27T15:14:03.826Z,22.36
2023-09-27T15:16:35.590Z,22.20
2023-09-27T15:19:07.486Z,21.85
2023-09-27T15:21:39.083Z,21.82
2023-09-27T15:24:11.273Z,21.62
2023-09-27T15:26:43.017Z,21.68
2023-09-27T15:29:14.782Z,21.73
2023-09-27T15:31:46.949Z,21.62
2023-09-27T15:34:18.547Z,21.67
2023-09-27T15:36:52.467Z,21.68
2023-09-27T15:39:25.393Z,21.54
2023-09-27T15:41:57.491Z,21.59
2023-09-27T15:44:29.515Z,21.60
2023-09-27T15:47:01.311Z,21.58
2023-09-27T15:49:36.120Z,21.64
2023-09-27T15:52:07.790Z,21.48
2023-09-27T15:54:42.777Z,21.42
2023-09-27T15:57:14.476Z,21.22
2023-09-27T15:59:46.392Z,21.18
2023-09-27T16:02:18.004Z,21.09
2023-09-27T16:04:52.730Z,21.11
2023-09-27T16:07:25.620Z,21.15
2023-09-27T16:09:57.760Z,21.08
2023-09-27T16:12:29.335Z,21.12
2023-09-27T16:15:01.166Z,21.02
2023-09-27T16:17:32.745Z,21.03
2023-09-27T16:20:04.733Z,20.96
2023-09-27T16:22:36.509Z,20.89
2023-09-27T16:25:08.954Z,20.94
2023-09-27T16:27:41.049Z,20.86
2023-09-27T16:30:13.933Z,20.78
2023-09-27T16:32:47.351Z,20.67
2023-09-27T16:35:19.095Z,20.58
2023-09-27T16:37:51.143Z,20.53
2023-09-27T16:40:22.974Z,20.34
2023-09-27T16:42:54.596Z,20.22
2023-09-27T16:45:27.961Z,20.20
2023-09-27T16:48:00.584Z,20.07
2023-09-27T16:50:32.233Z,20.04
2023-09-27T16:53:04.282Z,19.93
2023-09-27T16:55:36.683Z,19.81
2023-09-27T16:58:08.306Z,19.73
2023-09-27T17:00:43.197Z,19.65
2023-09-27T17:03:17.940Z,19.61
2023-09-27T17:05:53.214Z,19.51
2023-09-27T17:08:25.130Z,19.40
2023-09-27T17:10:56.757Z,19.41
2023-09-27T17:13:28.411Z,19.29
2023-09-27T17:16:00.255Z,19.19
2023-09-27T17:18:33.934Z,19.12
2023-09-27T17:21:05.757Z,19.11
2023-09-27T17:23:37.302Z,19.02
2023-09-27T17:26:08.832Z,18.99
2023-09-27T17:28:40.565Z,18.95
2023-09-27T17:31:12.823Z,18.86
2023-09-27T17:33:45.768Z,18.83
2023-09-27T17:36:17.486Z,18.79
2023-09-27T17:38:49.052Z,18.81
2023-09-27T17:41:20.577Z,18.63
2023-09-27T17:43:52.666Z,18.48
2023-09-27T17:46:28.076Z,18.43
2023-09-27T17:49:05.571Z,18.30
2023-09-27T17:51:38.480Z,18.27
2023-09-27T17:54:12.421Z,18.17
2023-09-27T17:56:43.961Z,18.12
2023-09-27T17:59:15.540Z,18.12
2023-09-27T18:01:47.986Z,18.18
2023-09-27T18:04:19.751Z,18.16
2023-09-27T18:06:51.249Z,18.25
2023-09-27T18:09:23.365Z,18.16
2023-09-27T18:11:57.556Z,18.16
2023-09-27T18:14:29.271Z,18.12
2023-09-27T18:17:00.958Z,18.00
2023-09-27T18:19:32.633Z,18.03
2023-09-27T18:22:04.333Z,17.96
2023-09-27T18:24:35.911Z,17.98
2023-09-27T18:27:07.503Z,17.93
2023-09-27T18:29:39.197Z,17.96
2023-09-27T18:32:11.116Z,17.86
2023-09-27T18:34:42.875Z,17.79
2023-09-27T18:37:15.261Z,17.76
2023-09-27T18:39:46.916Z,17.75
2023-09-27T18:42:19.734Z,17.72
2023-09-27T18:44:51.302Z,17.68
2023-09-27T18:47:22.998Z,17.67
2023-09-27T18:49:54.686Z,17.66
2023-09-27T18:52:26.312Z,17.65
2023-09-27T18:54:57.993Z,17.59
2023-09-27T18:57:29.561Z,17.58
2023-09-27T19:00:01.149Z,17.55
2023-09-27T19:02:34.121Z,17.54
2023-09-27T19:05:06.775Z,17.50
2023-09-27T19:07:38.441Z,17.50
2023-09-27T19:10:12.374Z,17.47
2023-09-27T19:12:43.949Z,17.46
2023-09-27T19:15:15.722Z,17.41
2023-09-27T19:17:47.315Z,17.37
2023-09-27T19:20:19.357Z,17.37
2023-09-27T19:22:51.241Z,17.39
2023-09-27T19:25:22.945Z,17.30
2023-09-27T19:27:54.718Z,17.31
2023-09-27T19:30:26.296Z,17.27
2023-09-27T19:32:58.017Z,17.31
2023-09-27T19:35:29.700Z,17.25
2023-09-27T19:38:01.366Z,17.25
2023-09-27T19:40:33.113Z,17.20
2023-09-27T19:43:04.684Z,17.23
2023-09-27T19:45:36.660Z,17.15
2023-09-27T19:48:08.242Z,17.10
2023-09-27T19:50:42.124Z,17.04
2023-09-27T19:53:13.751Z,16.99
2023-09-27T19:55:45.473Z,16.92
2023-09-27T19:58:19.183Z,16.91
2023-09-27T20:00:52.565Z,16.90
2023-09-27T20:03:24.248Z,16.88
2023-09-27T20:05:55.821Z,16.92
2023-09-27T20:08:27.989Z,16.89
2023-09-27T20:10:59.948Z,16.77
2023-09-27T20:13:31.697Z,16.81
2023-09-27T20:16:03.591Z,16.76
2023-09-27T20:18:35.382Z,16.79
2023-09-27T20:21:07.393Z,16.80
2023-09-27T20:23:39.878Z,16.81
2023-09-27T20:26:11.507Z,16.80
2023-09-27T20:28:43.706Z,16.73
2023-09-27T20:31:17.064Z,16.73
2023-09-27T20:33:49.082Z,16.80
2023-09-27T20:36:20.831Z,16.73
2023-09-27T20:38:52.519Z,16.80
2023-09-27T20:41:24.112Z,16.77
2023-09-27T20:43:56.286Z,16.82
2023-09-27T20:46:28.141Z,16.75
2023-09-27T20:49:02.624Z,16.78
2023-09-27T20:51:34.201Z,16.81
2023-09-27T20:54:06.512Z,16.74
2023-09-27T20:56:39.388Z,16.78
2023-09-27T20:59:11.166Z,16.83
2023-09-27T21:01:43.059Z,16.90
2023-09-27T21:04:16.175Z,16.96
2023-09-27T21:06:48.350Z,17.09
2023-09-27T21:09:19.968Z,17.14
2023-09-27T21:11:51.517Z,17.20
2023-09-27T21:14:23.044Z,17.22
2023-09-27T21:16:54.613Z,17.25
2023-09-27T21:19:26.132Z,17.33
2023-09-27T21:21:57.834Z,17.34
2023-09-27T21:24:29.549Z,17.40
2023-09-27T21:27:01.597Z,17.43
2023-09-27T21:29:34.522Z,17.53
2023-09-27T21:32:06.300Z,17.60
2023-09-27T21:34:37.888Z,17.62
2023-09-27T21:37:09.410Z,17.60
2023-09-27T21:39:40.922Z,17.60
2023-09-27T21:42:12.524Z,17.61
2023-09-27T21:44:44.353Z,17.55
2023-09-27T21:47:15.924Z,17.52
2023-09-27T21:49:47.613Z,17.54
2023-09-27T21:52:19.182Z,17.53
2023-09-27T21:54:52.016Z,17.46
2023-09-27T21:57:23.622Z,17.46
2023-09-27T21:59:55.165Z,17.39
2023-09-27T22:02:27.810Z,17.39
2023-09-27T22:05:00.003Z,17.32
2023-09-27T22:07:33.808Z,17.30
2023-09-27T22:10:06.507Z,17.33
2023-09-27T22:12:38.100Z,17.28
2023-09-27T22:15:10.792Z,17.21
2023-09-27T22:17:43.041Z,17.19
2023-09-27T22:20:20.771Z,17.18
2023-09-27T22:22:54.381Z,17.13
2023-09-27T22:25:26.353Z,17.17
2023-09-27T22:27:58.588Z,17.17
2023-09-27T22:30:31.473Z,17.17
2023-09-27T22:33:09.643Z,17.11
2023-09-27T22:35:43.514Z,17.11
2023-09-27T22:38:16.825Z,17.07
2023-09-27T22:40:48.710Z,17.05
2023-09-27T22:43:21.379Z,17.06
2023-09-27T22:45:53.699Z,17.10
2023-09-27T22:48:28.366Z,17.13
2023-09-27T22:51:00.919Z,17.14
2023-09-27T22:53:33.997Z,17.12
2023-09-27T22:56:08.736Z,17.13
2023-09-27T22:58:40.494Z,17.13
2023-09-27T23:01:29.373Z,17.18
2023-09-27T23:04:01.607Z,17.10
2023-09-27T23:06:33.491Z,17.04
2023-09-27T23:09:10.738Z,17.06
2023-09-27T23:11:42.264Z,17.04
2023-09-27T23:14:22.702Z,17.09
2023-09-27T23:17:14.346Z,16.98
2023-09-27T23:19:46.583Z,16.93
2023-09-27T23:22:18.231Z,16.88
2023-09-27T23:25:09.838Z,16.82
2023-09-27T23:27:42.318Z,16.78
2023-09-27T23:30:14.059Z,16.76
2023-09-27T23:32:48.031Z,16.74
2023-09-27T23:35:20.093Z,16.80
2023-09-27T23:38:05.043Z,16.70
2023-09-27T23:40:42.614Z,16.71
2023-09-27T23:43:17.223Z,16.69
2023-09-27T23:45:49.441Z,16.75
2023-09-27T23:48:21.797Z,16.72
2023-09-27T23:50:55.727Z,16.65
2023-09-27T23:53:27.483Z,16.63
2023-09-27T23:56:00.842Z,16.61
2023-09-27T23:58:33.750Z,16.63
